Estancia Bella Vista, Argentina
Current Conditions -  °F | °C
As of 8:00 PM on Friday 24 Oct 2014 (Local Time) from SAZN Reporting Station
Clear Clear  
Wind Chill: 77°   Ceiling: Unl
Heat Index: 78°   Visibility: 6mi
Dew Point: 54°   Wind: 5mph
Humidity: 44%   Direction: 70°ENE
Pressure: 29.94"   Gusts: NA
Location:  42.13°S, 64.69°W
Report Text: SAZN 242300Z 07004KT CAVOK 25/12 Q1014
Loading
Personal Weather Stations






























Interactive Weather Map
Tropical Storm Tracking
New forecast layout! Learn more

10-Day Weather Forecast

Advertisements
Track Severe Weather on mobile